sensor_id;sensor_type;location;lat;lon;timestamp;P1;durP1;ratioP1;P2;durP2;ratioP2
61635;SDS011;59438;45.014;39.006;2023-05-07T00:02:06;10.82;;;2.08;;
61635;SDS011;59438;45.014;39.006;2023-05-07T00:04:33;8.88;;;2.05;;
61635;SDS011;59438;45.014;39.006;2023-05-07T00:06:59;12.32;;;2.30;;
61635;SDS011;59438;45.014;39.006;2023-05-07T00:09:26;8.68;;;2.55;;
61635;SDS011;59438;45.014;39.006;2023-05-07T00:11:53;11.13;;;1.73;;
61635;SDS011;59438;45.014;39.006;2023-05-07T00:14:19;8.82;;;1.88;;
61635;SDS011;59438;45.014;39.006;2023-05-07T00:16:46;6.85;;;2.35;;
61635;SDS011;59438;45.014;39.006;2023-05-07T00:19:13;8.05;;;1.77;;
61635;SDS011;59438;45.014;39.006;2023-05-07T00:21:40;9.93;;;1.65;;
61635;SDS011;59438;45.014;39.006;2023-05-07T00:24:06;12.32;;;2.03;;
61635;SDS011;59438;45.014;39.006;2023-05-07T00:26:33;5.75;;;1.95;;
61635;SDS011;59438;45.014;39.006;2023-05-07T00:28:59;7.38;;;2.05;;
61635;SDS011;59438;45.014;39.006;2023-05-07T00:31:25;6.95;;;1.95;;
61635;SDS011;59438;45.014;39.006;2023-05-07T00:33:52;6.78;;;2.10;;
61635;SDS011;59438;45.014;39.006;2023-05-07T00:36:19;9.75;;;1.85;;
61635;SDS011;59438;45.014;39.006;2023-05-07T00:38:46;9.95;;;2.90;;
61635;SDS011;59438;45.014;39.006;2023-05-07T00:41:12;2.00;;;1.33;;
61635;SDS011;59438;45.014;39.006;2023-05-07T00:43:38;6.85;;;2.03;;
61635;SDS011;59438;45.014;39.006;2023-05-07T00:46:05;8.05;;;1.85;;
61635;SDS011;59438;45.014;39.006;2023-05-07T00:48:31;4.78;;;1.92;;
61635;SDS011;59438;45.014;39.006;2023-05-07T00:50:58;6.43;;;1.90;;
61635;SDS011;59438;45.014;39.006;2023-05-07T00:53:26;5.07;;;1.92;;
61635;SDS011;59438;45.014;39.006;2023-05-07T00:55:52;16.20;;;2.08;;
61635;SDS011;59438;45.014;39.006;2023-05-07T00:58:19;5.93;;;2.05;;
61635;SDS011;59438;45.014;39.006;2023-05-07T01:00:46;6.57;;;1.85;;
61635;SDS011;59438;45.014;39.006;2023-05-07T01:03:13;5.07;;;1.88;;
61635;SDS011;59438;45.014;39.006;2023-05-07T01:05:39;4.30;;;1.65;;
61635;SDS011;59438;45.014;39.006;2023-05-07T01:08:06;11.68;;;1.98;;
61635;SDS011;59438;45.014;39.006;2023-05-07T01:10:34;20.08;;;2.42;;
61635;SDS011;59438;45.014;39.006;2023-05-07T01:13:00;10.63;;;2.38;;
61635;SDS011;59438;45.014;39.006;2023-05-07T01:15:27;6.45;;;1.55;;
61635;SDS011;59438;45.014;39.006;2023-05-07T01:17:54;7.07;;;1.90;;
61635;SDS011;59438;45.014;39.006;2023-05-07T01:20:22;5.55;;;2.00;;
61635;SDS011;59438;45.014;39.006;2023-05-07T01:22:50;4.68;;;1.73;;
61635;SDS011;59438;45.014;39.006;2023-05-07T01:25:17;4.70;;;1.80;;
61635;SDS011;59438;45.014;39.006;2023-05-07T01:27:44;8.63;;;2.20;;
61635;SDS011;59438;45.014;39.006;2023-05-07T01:30:11;10.98;;;2.17;;
61635;SDS011;59438;45.014;39.006;2023-05-07T01:32:37;6.78;;;1.80;;
61635;SDS011;59438;45.014;39.006;2023-05-07T01:35:09;3.75;;;1.67;;
61635;SDS011;59438;45.014;39.006;2023-05-07T01:37:38;8.70;;;1.70;;
61635;SDS011;59438;45.014;39.006;2023-05-07T01:40:07;4.68;;;1.60;;
61635;SDS011;59438;45.014;39.006;2023-05-07T01:42:34;8.15;;;1.73;;
61635;SDS011;59438;45.014;39.006;2023-05-07T01:45:01;2.83;;;1.75;;
61635;SDS011;59438;45.014;39.006;2023-05-07T01:47:28;5.95;;;1.77;;
61635;SDS011;59438;45.014;39.006;2023-05-07T01:49:55;4.15;;;2.00;;
61635;SDS011;59438;45.014;39.006;2023-05-07T01:52:22;8.15;;;1.92;;
61635;SDS011;59438;45.014;39.006;2023-05-07T01:54:49;9.02;;;1.63;;
61635;SDS011;59438;45.014;39.006;2023-05-07T01:57:16;4.22;;;1.58;;
61635;SDS011;59438;45.014;39.006;2023-05-07T01:59:43;4.45;;;1.90;;
61635;SDS011;59438;45.014;39.006;2023-05-07T02:02:09;5.13;;;2.00;;
61635;SDS011;59438;45.014;39.006;2023-05-07T02:04:35;7.15;;;1.98;;
61635;SDS011;59438;45.014;39.006;2023-05-07T02:07:02;12.85;;;1.60;;
61635;SDS011;59438;45.014;39.006;2023-05-07T02:09:28;7.95;;;1.35;;
61635;SDS011;59438;45.014;39.006;2023-05-07T02:11:54;3.55;;;1.70;;
61635;SDS011;59438;45.014;39.006;2023-05-07T02:14:22;7.68;;;1.58;;
61635;SDS011;59438;45.014;39.006;2023-05-07T02:16:48;4.45;;;1.63;;
61635;SDS011;59438;45.014;39.006;2023-05-07T02:19:15;5.05;;;1.38;;
61635;SDS011;59438;45.014;39.006;2023-05-07T02:21:41;12.70;;;1.65;;
61635;SDS011;59438;45.014;39.006;2023-05-07T02:24:07;5.35;;;1.80;;
61635;SDS011;59438;45.014;39.006;2023-05-07T02:26:34;3.88;;;1.50;;
61635;SDS011;59438;45.014;39.006;2023-05-07T02:29:00;7.28;;;1.80;;
61635;SDS011;59438;45.014;39.006;2023-05-07T02:31:28;4.80;;;2.50;;
61635;SDS011;59438;45.014;39.006;2023-05-07T02:33:54;22.25;;;2.00;;
61635;SDS011;59438;45.014;39.006;2023-05-07T02:36:21;9.77;;;1.60;;
61635;SDS011;59438;45.014;39.006;2023-05-07T02:38:47;6.10;;;1.52;;
61635;SDS011;59438;45.014;39.006;2023-05-07T02:41:13;4.82;;;1.83;;
61635;SDS011;59438;45.014;39.006;2023-05-07T02:43:39;7.25;;;2.10;;
61635;SDS011;59438;45.014;39.006;2023-05-07T02:46:07;3.25;;;1.40;;
61635;SDS011;59438;45.014;39.006;2023-05-07T02:48:35;6.03;;;1.50;;
61635;SDS011;59438;45.014;39.006;2023-05-07T02:51:02;4.50;;;1.48;;
61635;SDS011;59438;45.014;39.006;2023-05-07T02:53:29;10.63;;;1.80;;
61635;SDS011;59438;45.014;39.006;2023-05-07T02:55:56;4.63;;;1.70;;
61635;SDS011;59438;45.014;39.006;2023-05-07T02:58:23;1.55;;;1.15;;
61635;SDS011;59438;45.014;39.006;2023-05-07T03:00:50;6.10;;;1.63;;
61635;SDS011;59438;45.014;39.006;2023-05-07T03:03:16;3.13;;;1.70;;
61635;SDS011;59438;45.014;39.006;2023-05-07T03:05:44;5.97;;;1.55;;
61635;SDS011;59438;45.014;39.006;2023-05-07T03:08:11;4.00;;;1.50;;
61635;SDS011;59438;45.014;39.006;2023-05-07T03:10:37;4.95;;;1.80;;
61635;SDS011;59438;45.014;39.006;2023-05-07T03:13:04;9.23;;;2.17;;
61635;SDS011;59438;45.014;39.006;2023-05-07T03:15:30;3.78;;;1.50;;
61635;SDS011;59438;45.014;39.006;2023-05-07T03:17:56;4.13;;;1.70;;
61635;SDS011;59438;45.014;39.006;2023-05-07T03:20:23;2.90;;;1.48;;
61635;SDS011;59438;45.014;39.006;2023-05-07T03:22:50;9.68;;;1.50;;
61635;SDS011;59438;45.014;39.006;2023-05-07T03:25:17;3.70;;;1.25;;
61635;SDS011;59438;45.014;39.006;2023-05-07T03:27:43;5.55;;;1.60;;
61635;SDS011;59438;45.014;39.006;2023-05-07T03:30:10;4.07;;;1.40;;
61635;SDS011;59438;45.014;39.006;2023-05-07T03:32:37;4.00;;;1.70;;
61635;SDS011;59438;45.014;39.006;2023-05-07T03:35:04;7.68;;;1.50;;
61635;SDS011;59438;45.014;39.006;2023-05-07T03:37:31;4.30;;;1.50;;
61635;SDS011;59438;45.014;39.006;2023-05-07T03:39:59;3.72;;;1.60;;
61635;SDS011;59438;45.014;39.006;2023-05-07T03:42:25;3.75;;;1.38;;
61635;SDS011;59438;45.014;39.006;2023-05-07T03:44:51;5.20;;;1.45;;
61635;SDS011;59438;45.014;39.006;2023-05-07T03:47:18;6.30;;;1.20;;
61635;SDS011;59438;45.014;39.006;2023-05-07T03:49:44;5.35;;;1.45;;
61635;SDS011;59438;45.014;39.006;2023-05-07T03:52:10;2.67;;;1.40;;
61635;SDS011;59438;45.014;39.006;2023-05-07T03:54:37;5.00;;;1.20;;
61635;SDS011;59438;45.014;39.006;2023-05-07T03:57:04;5.28;;;1.60;;
61635;SDS011;59438;45.014;39.006;2023-05-07T03:59:31;5.97;;;1.40;;
61635;SDS011;59438;45.014;39.006;2023-05-07T04:01:57;9.85;;;1.40;;
61635;SDS011;59438;45.014;39.006;2023-05-07T04:04:24;2.95;;;1.30;;
61635;SDS011;59438;45.014;39.006;2023-05-07T04:06:50;5.78;;;1.60;;
61635;SDS011;59438;45.014;39.006;2023-05-07T04:09:16;6.55;;;1.50;;
61635;SDS011;59438;45.014;39.006;2023-05-07T04:11:43;3.53;;;1.27;;
61635;SDS011;59438;45.014;39.006;2023-05-07T04:14:10;10.50;;;1.50;;
61635;SDS011;59438;45.014;39.006;2023-05-07T04:16:37;3.35;;;1.30;;
61635;SDS011;59438;45.014;39.006;2023-05-07T04:19:03;6.60;;;1.27;;
61635;SDS011;59438;45.014;39.006;2023-05-07T04:21:29;3.17;;;1.60;;
61635;SDS011;59438;45.014;39.006;2023-05-07T04:23:56;6.50;;;1.48;;
61635;SDS011;59438;45.014;39.006;2023-05-07T04:26:22;8.02;;;1.77;;
61635;SDS011;59438;45.014;39.006;2023-05-07T04:28:48;4.90;;;1.25;;
61635;SDS011;59438;45.014;39.006;2023-05-07T04:31:16;7.20;;;1.23;;
61635;SDS011;59438;45.014;39.006;2023-05-07T04:33:42;4.97;;;1.20;;
61635;SDS011;59438;45.014;39.006;2023-05-07T04:36:09;5.00;;;1.20;;
61635;SDS011;59438;45.014;39.006;2023-05-07T04:38:35;3.20;;;1.27;;
61635;SDS011;59438;45.014;39.006;2023-05-07T04:41:02;5.47;;;1.20;;
61635;SDS011;59438;45.014;39.006;2023-05-07T04:43:29;8.10;;;1.50;;
61635;SDS011;59438;45.014;39.006;2023-05-07T04:45:55;10.80;;;1.48;;
61635;SDS011;59438;45.014;39.006;2023-05-07T04:48:23;3.58;;;2.08;;
61635;SDS011;59438;45.014;39.006;2023-05-07T04:50:50;7.25;;;1.38;;
61635;SDS011;59438;45.014;39.006;2023-05-07T04:53:16;3.35;;;1.30;;
61635;SDS011;59438;45.014;39.006;2023-05-07T04:55:43;2.47;;;1.15;;
61635;SDS011;59438;45.014;39.006;2023-05-07T04:58:09;6.90;;;1.60;;
61635;SDS011;59438;45.014;39.006;2023-05-07T05:00:36;3.50;;;1.20;;
61635;SDS011;59438;45.014;39.006;2023-05-07T05:03:02;5.70;;;1.50;;
61635;SDS011;59438;45.014;39.006;2023-05-07T05:05:30;4.95;;;1.42;;
61635;SDS011;59438;45.014;39.006;2023-05-07T05:07:56;5.28;;;1.38;;
61635;SDS011;59438;45.014;39.006;2023-05-07T05:10:23;5.40;;;1.30;;
61635;SDS011;59438;45.014;39.006;2023-05-07T05:12:49;6.68;;;1.17;;
61635;SDS011;59438;45.014;39.006;2023-05-07T05:15:15;7.38;;;1.27;;
61635;SDS011;59438;45.014;39.006;2023-05-07T05:17:42;4.07;;;1.30;;
61635;SDS011;59438;45.014;39.006;2023-05-07T05:20:08;8.05;;;1.35;;
61635;SDS011;59438;45.014;39.006;2023-05-07T05:22:36;4.85;;;1.40;;
61635;SDS011;59438;45.014;39.006;2023-05-07T05:25:03;4.07;;;1.40;;
61635;SDS011;59438;45.014;39.006;2023-05-07T05:27:29;8.35;;;1.38;;
61635;SDS011;59438;45.014;39.006;2023-05-07T05:29:56;3.83;;;1.35;;
61635;SDS011;59438;45.014;39.006;2023-05-07T05:32:22;4.47;;;1.42;;
61635;SDS011;59438;45.014;39.006;2023-05-07T05:34:49;5.53;;;1.30;;
61635;SDS011;59438;45.014;39.006;2023-05-07T05:37:15;7.63;;;1.75;;
61635;SDS011;59438;45.014;39.006;2023-05-07T05:39:43;4.10;;;1.27;;
61635;SDS011;59438;45.014;39.006;2023-05-07T05:42:09;8.05;;;1.40;;
61635;SDS011;59438;45.014;39.006;2023-05-07T05:44:35;1.70;;;0.93;;
61635;SDS011;59438;45.014;39.006;2023-05-07T05:47:02;7.60;;;1.52;;
61635;SDS011;59438;45.014;39.006;2023-05-07T05:49:29;5.00;;;1.27;;
61635;SDS011;59438;45.014;39.006;2023-05-07T05:51:55;7.90;;;1.58;;
61635;SDS011;59438;45.014;39.006;2023-05-07T05:54:21;4.15;;;1.45;;
61635;SDS011;59438;45.014;39.006;2023-05-07T05:56:49;11.00;;;1.58;;
61635;SDS011;59438;45.014;39.006;2023-05-07T05:59:15;8.88;;;1.42;;
61635;SDS011;59438;45.014;39.006;2023-05-07T06:01:42;3.10;;;1.40;;
61635;SDS011;59438;45.014;39.006;2023-05-07T06:04:08;3.85;;;1.50;;
61635;SDS011;59438;45.014;39.006;2023-05-07T06:06:35;5.65;;;1.33;;
61635;SDS011;59438;45.014;39.006;2023-05-07T06:09:01;7.47;;;1.92;;
61635;SDS011;59438;45.014;39.006;2023-05-07T06:11:27;8.95;;;1.70;;
61635;SDS011;59438;45.014;39.006;2023-05-07T06:13:55;8.40;;;1.90;;
61635;SDS011;59438;45.014;39.006;2023-05-07T06:16:21;4.53;;;1.90;;
61635;SDS011;59438;45.014;39.006;2023-05-07T06:18:48;3.10;;;1.33;;
61635;SDS011;59438;45.014;39.006;2023-05-07T06:21:14;2.05;;;1.40;;
61635;SDS011;59438;45.014;39.006;2023-05-07T06:23:40;3.53;;;1.10;;
61635;SDS011;59438;45.014;39.006;2023-05-07T06:26:07;5.53;;;1.70;;
61635;SDS011;59438;45.014;39.006;2023-05-07T06:28:33;4.15;;;1.40;;
61635;SDS011;59438;45.014;39.006;2023-05-07T06:31:11;3.03;;;1.40;;
61635;SDS011;59438;45.014;39.006;2023-05-07T06:33:39;13.15;;;1.52;;
61635;SDS011;59438;45.014;39.006;2023-05-07T06:36:05;6.95;;;1.52;;
61635;SDS011;59438;45.014;39.006;2023-05-07T06:38:32;5.22;;;1.50;;
61635;SDS011;59438;45.014;39.006;2023-05-07T06:40:58;2.65;;;1.42;;
61635;SDS011;59438;45.014;39.006;2023-05-07T06:43:25;8.60;;;1.60;;
61635;SDS011;59438;45.014;39.006;2023-05-07T06:45:51;15.00;;;1.63;;
61635;SDS011;59438;45.014;39.006;2023-05-07T06:48:19;4.32;;;1.50;;
61635;SDS011;59438;45.014;39.006;2023-05-07T06:50:45;6.50;;;1.88;;
61635;SDS011;59438;45.014;39.006;2023-05-07T06:53:12;5.00;;;1.70;;
61635;SDS011;59438;45.014;39.006;2023-05-07T06:55:38;6.55;;;1.67;;
61635;SDS011;59438;45.014;39.006;2023-05-07T06:58:04;8.48;;;1.65;;
61635;SDS011;59438;45.014;39.006;2023-05-07T07:00:31;6.85;;;1.60;;
61635;SDS011;59438;45.014;39.006;2023-05-07T07:02:57;10.68;;;1.63;;
61635;SDS011;59438;45.014;39.006;2023-05-07T07:05:25;3.67;;;1.45;;
61635;SDS011;59438;45.014;39.006;2023-05-07T07:07:51;9.27;;;1.70;;
61635;SDS011;59438;45.014;39.006;2023-05-07T07:10:17;7.82;;;1.60;;
61635;SDS011;59438;45.014;39.006;2023-05-07T07:12:44;4.05;;;1.92;;
61635;SDS011;59438;45.014;39.006;2023-05-07T07:15:10;5.35;;;1.67;;
61635;SDS011;59438;45.014;39.006;2023-05-07T07:17:37;3.47;;;1.48;;
61635;SDS011;59438;45.014;39.006;2023-05-07T07:20:03;4.60;;;1.45;;
61635;SDS011;59438;45.014;39.006;2023-05-07T07:22:32;7.50;;;1.88;;
61635;SDS011;59438;45.014;39.006;2023-05-07T07:24:59;7.88;;;1.50;;
61635;SDS011;59438;45.014;39.006;2023-05-07T07:27:25;6.00;;;1.73;;
61635;SDS011;59438;45.014;39.006;2023-05-07T07:29:51;5.30;;;1.70;;
61635;SDS011;59438;45.014;39.006;2023-05-07T07:32:18;9.77;;;2.00;;
61635;SDS011;59438;45.014;39.006;2023-05-07T07:34:44;7.05;;;1.80;;
61635;SDS011;59438;45.014;39.006;2023-05-07T07:37:11;3.35;;;1.65;;
61635;SDS011;59438;45.014;39.006;2023-05-07T07:39:38;5.30;;;2.00;;
61635;SDS011;59438;45.014;39.006;2023-05-07T07:42:05;5.28;;;1.70;;
61635;SDS011;59438;45.014;39.006;2023-05-07T07:44:31;8.93;;;2.00;;
61635;SDS011;59438;45.014;39.006;2023-05-07T07:46:57;5.43;;;1.83;;
61635;SDS011;59438;45.014;39.006;2023-05-07T07:49:24;8.80;;;1.67;;
61635;SDS011;59438;45.014;39.006;2023-05-07T07:51:50;5.13;;;1.40;;
61635;SDS011;59438;45.014;39.006;2023-05-07T07:54:16;7.78;;;1.88;;
61635;SDS011;59438;45.014;39.006;2023-05-07T07:56:44;6.38;;;1.73;;
61635;SDS011;59438;45.014;39.006;2023-05-07T07:59:11;5.80;;;1.65;;
61635;SDS011;59438;45.014;39.006;2023-05-07T08:01:37;5.15;;;1.75;;
61635;SDS011;59438;45.014;39.006;2023-05-07T08:04:03;6.65;;;1.60;;
61635;SDS011;59438;45.014;39.006;2023-05-07T08:06:30;4.38;;;1.80;;
61635;SDS011;59438;45.014;39.006;2023-05-07T08:08:56;3.78;;;1.80;;
61635;SDS011;59438;45.014;39.006;2023-05-07T08:11:22;10.90;;;1.88;;
61635;SDS011;59438;45.014;39.006;2023-05-07T08:13:50;4.63;;;2.03;;
61635;SDS011;59438;45.014;39.006;2023-05-07T08:16:16;3.80;;;1.60;;
61635;SDS011;59438;45.014;39.006;2023-05-07T08:18:43;4.63;;;1.80;;
61635;SDS011;59438;45.014;39.006;2023-05-07T08:21:09;9.57;;;2.00;;
61635;SDS011;59438;45.014;39.006;2023-05-07T08:23:36;5.15;;;1.77;;
61635;SDS011;59438;45.014;39.006;2023-05-07T08:26:02;7.38;;;1.80;;
61635;SDS011;59438;45.014;39.006;2023-05-07T08:28:29;10.18;;;2.38;;
61635;SDS011;59438;45.014;39.006;2023-05-07T08:30:56;4.88;;;2.10;;
61635;SDS011;59438;45.014;39.006;2023-05-07T08:33:23;8.68;;;1.90;;
61635;SDS011;59438;45.014;39.006;2023-05-07T08:35:49;6.40;;;2.40;;
61635;SDS011;59438;45.014;39.006;2023-05-07T08:38:15;4.38;;;2.00;;
61635;SDS011;59438;45.014;39.006;2023-05-07T08:40:42;4.97;;;1.75;;
61635;SDS011;59438;45.014;39.006;2023-05-07T08:43:10;3.88;;;1.60;;
61635;SDS011;59438;45.014;39.006;2023-05-07T08:45:39;7.37;;;1.97;;
61635;SDS011;59438;45.014;39.006;2023-05-07T08:48:08;5.50;;;2.00;;
61635;SDS011;59438;45.014;39.006;2023-05-07T08:50:39;6.72;;;1.90;;
61635;SDS011;59438;45.014;39.006;2023-05-07T08:53:06;8.85;;;1.75;;
61635;SDS011;59438;45.014;39.006;2023-05-07T08:55:32;4.38;;;1.80;;
61635;SDS011;59438;45.014;39.006;2023-05-07T08:57:59;4.82;;;1.80;;
61635;SDS011;59438;45.014;39.006;2023-05-07T09:00:25;6.60;;;1.73;;
61635;SDS011;59438;45.014;39.006;2023-05-07T09:02:52;4.90;;;1.98;;
61635;SDS011;59438;45.014;39.006;2023-05-07T09:05:19;6.68;;;1.95;;
61635;SDS011;59438;45.014;39.006;2023-05-07T09:07:46;10.45;;;2.17;;
61635;SDS011;59438;45.014;39.006;2023-05-07T09:10:13;5.47;;;1.70;;
61635;SDS011;59438;45.014;39.006;2023-05-07T09:12:39;6.20;;;1.95;;
61635;SDS011;59438;45.014;39.006;2023-05-07T09:15:06;7.80;;;1.80;;
61635;SDS011;59438;45.014;39.006;2023-05-07T09:17:33;4.38;;;1.50;;
61635;SDS011;59438;45.014;39.006;2023-05-07T09:20:01;10.30;;;2.42;;
61635;SDS011;59438;45.014;39.006;2023-05-07T09:22:31;7.15;;;2.00;;
61635;SDS011;59438;45.014;39.006;2023-05-07T09:24:57;11.52;;;2.10;;
61635;SDS011;59438;45.014;39.006;2023-05-07T09:27:24;8.40;;;1.50;;
61635;SDS011;59438;45.014;39.006;2023-05-07T09:29:51;6.53;;;2.20;;
61635;SDS011;59438;45.014;39.006;2023-05-07T09:32:18;12.65;;;2.30;;
61635;SDS011;59438;45.014;39.006;2023-05-07T09:34:44;5.20;;;1.88;;
61635;SDS011;59438;45.014;39.006;2023-05-07T09:37:11;6.35;;;2.05;;
61635;SDS011;59438;45.014;39.006;2023-05-07T09:39:40;5.38;;;2.10;;
61635;SDS011;59438;45.014;39.006;2023-05-07T09:42:07;5.57;;;2.05;;
61635;SDS011;59438;45.014;39.006;2023-05-07T09:44:34;7.57;;;2.25;;
61635;SDS011;59438;45.014;39.006;2023-05-07T09:47:00;6.40;;;1.80;;
61635;SDS011;59438;45.014;39.006;2023-05-07T09:49:29;7.28;;;2.25;;
61635;SDS011;59438;45.014;39.006;2023-05-07T09:51:59;9.77;;;2.60;;
61635;SDS011;59438;45.014;39.006;2023-05-07T09:54:26;3.28;;;1.95;;
61635;SDS011;59438;45.014;39.006;2023-05-07T09:56:55;6.00;;;2.33;;
61635;SDS011;59438;45.014;39.006;2023-05-07T09:59:22;8.65;;;2.38;;
61635;SDS011;59438;45.014;39.006;2023-05-07T10:01:50;6.68;;;2.20;;
61635;SDS011;59438;45.014;39.006;2023-05-07T10:04:24;7.78;;;2.53;;
61635;SDS011;59438;45.014;39.006;2023-05-07T10:06:50;9.63;;;2.70;;
61635;SDS011;59438;45.014;39.006;2023-05-07T10:09:17;5.57;;;2.03;;
61635;SDS011;59438;45.014;39.006;2023-05-07T10:11:45;10.98;;;2.90;;
61635;SDS011;59438;45.014;39.006;2023-05-07T10:14:14;7.70;;;2.55;;
61635;SDS011;59438;45.014;39.006;2023-05-07T10:16:41;10.20;;;3.42;;
61635;SDS011;59438;45.014;39.006;2023-05-07T10:19:08;9.98;;;2.97;;
61635;SDS011;59438;45.014;39.006;2023-05-07T10:21:36;13.32;;;3.92;;
61635;SDS011;59438;45.014;39.006;2023-05-07T10:24:04;15.95;;;3.47;;
61635;SDS011;59438;45.014;39.006;2023-05-07T10:26:34;22.73;;;6.70;;
61635;SDS011;59438;45.014;39.006;2023-05-07T10:29:03;14.82;;;5.28;;
61635;SDS011;59438;45.014;39.006;2023-05-07T10:31:47;16.88;;;4.43;;
61635;SDS011;59438;45.014;39.006;2023-05-07T10:34:19;11.45;;;3.30;;
61635;SDS011;59438;45.014;39.006;2023-05-07T10:36:48;15.90;;;3.58;;
61635;SDS011;59438;45.014;39.006;2023-05-07T10:39:16;10.20;;;3.45;;
61635;SDS011;59438;45.014;39.006;2023-05-07T10:41:42;7.28;;;3.45;;
61635;SDS011;59438;45.014;39.006;2023-05-07T10:44:09;11.95;;;4.43;;
61635;SDS011;59438;45.014;39.006;2023-05-07T10:46:35;16.83;;;4.03;;
61635;SDS011;59438;45.014;39.006;2023-05-07T10:49:10;7.70;;;2.55;;
61635;SDS011;59438;45.014;39.006;2023-05-07T10:51:36;9.48;;;2.75;;
61635;SDS011;59438;45.014;39.006;2023-05-07T10:54:18;9.70;;;2.63;;
61635;SDS011;59438;45.014;39.006;2023-05-07T10:56:47;11.43;;;3.10;;
61635;SDS011;59438;45.014;39.006;2023-05-07T11:02:09;9.45;;;2.90;;
61635;SDS011;59438;45.014;39.006;2023-05-07T11:04:37;12.07;;;3.13;;
61635;SDS011;59438;45.014;39.006;2023-05-07T11:07:24;15.45;;;3.30;;
61635;SDS011;59438;45.014;39.006;2023-05-07T11:09:55;7.63;;;3.47;;
61635;SDS011;59438;45.014;39.006;2023-05-07T11:12:48;12.25;;;3.50;;
61635;SDS011;59438;45.014;39.006;2023-05-07T11:15:39;11.55;;;3.90;;
61635;SDS011;59438;45.014;39.006;2023-05-07T11:18:07;11.80;;;4.25;;
61635;SDS011;59438;45.014;39.006;2023-05-07T11:20:55;9.88;;;4.32;;
61635;SDS011;59438;45.014;39.006;2023-05-07T11:26:25;12.07;;;3.40;;
61635;SDS011;59438;45.014;39.006;2023-05-07T11:28:53;15.77;;;7.13;;
61635;SDS011;59438;45.014;39.006;2023-05-07T11:31:21;12.35;;;4.88;;
61635;SDS011;59438;45.014;39.006;2023-05-07T11:33:48;11.27;;;4.97;;
61635;SDS011;59438;45.014;39.006;2023-05-07T11:36:17;9.93;;;3.95;;
61635;SDS011;59438;45.014;39.006;2023-05-07T11:38:44;11.82;;;4.78;;
61635;SDS011;59438;45.014;39.006;2023-05-07T11:41:11;22.08;;;4.13;;
61635;SDS011;59438;45.014;39.006;2023-05-07T11:43:37;7.90;;;3.40;;
61635;SDS011;59438;45.014;39.006;2023-05-07T11:46:07;9.88;;;3.80;;
61635;SDS011;59438;45.014;39.006;2023-05-07T11:51:01;12.48;;;3.50;;
61635;SDS011;59438;45.014;39.006;2023-05-07T11:53:35;13.60;;;5.20;;
61635;SDS011;59438;45.014;39.006;2023-05-07T11:56:06;35.65;;;12.15;;
61635;SDS011;59438;45.014;39.006;2023-05-07T11:58:33;20.58;;;6.47;;
61635;SDS011;59438;45.014;39.006;2023-05-07T12:00:59;16.42;;;5.60;;
61635;SDS011;59438;45.014;39.006;2023-05-07T12:03:26;13.98;;;3.75;;
61635;SDS011;59438;45.014;39.006;2023-05-07T12:05:52;9.43;;;3.80;;
61635;SDS011;59438;45.014;39.006;2023-05-07T12:08:20;13.02;;;4.00;;
61635;SDS011;59438;45.014;39.006;2023-05-07T12:10:49;12.88;;;4.05;;
61635;SDS011;59438;45.014;39.006;2023-05-07T12:13:16;8.75;;;4.10;;
61635;SDS011;59438;45.014;39.006;2023-05-07T12:15:42;12.23;;;4.22;;
61635;SDS011;59438;45.014;39.006;2023-05-07T12:18:09;9.77;;;3.88;;
61635;SDS011;59438;45.014;39.006;2023-05-07T12:20:36;12.48;;;3.83;;
61635;SDS011;59438;45.014;39.006;2023-05-07T12:23:03;10.80;;;3.88;;
61635;SDS011;59438;45.014;39.006;2023-05-07T12:25:30;8.43;;;3.08;;
61635;SDS011;59438;45.014;39.006;2023-05-07T12:27:58;9.80;;;3.55;;
61635;SDS011;59438;45.014;39.006;2023-05-07T12:30:26;14.77;;;3.73;;
61635;SDS011;59438;45.014;39.006;2023-05-07T12:32:53;6.22;;;3.08;;
61635;SDS011;59438;45.014;39.006;2023-05-07T12:35:25;13.63;;;3.00;;
61635;SDS011;59438;45.014;39.006;2023-05-07T12:37:54;17.27;;;3.53;;
61635;SDS011;59438;45.014;39.006;2023-05-07T12:40:21;7.80;;;3.20;;
61635;SDS011;59438;45.014;39.006;2023-05-07T12:42:47;9.85;;;3.40;;
61635;SDS011;59438;45.014;39.006;2023-05-07T12:45:20;8.20;;;3.20;;
61635;SDS011;59438;45.014;39.006;2023-05-07T12:47:47;14.73;;;3.85;;
61635;SDS011;59438;45.014;39.006;2023-05-07T12:50:13;12.43;;;3.75;;
61635;SDS011;59438;45.014;39.006;2023-05-07T12:52:40;8.25;;;3.22;;
61635;SDS011;59438;45.014;39.006;2023-05-07T12:55:07;7.00;;;3.13;;
61635;SDS011;59438;45.014;39.006;2023-05-07T12:57:37;13.43;;;4.75;;
61635;SDS011;59438;45.014;39.006;2023-05-07T13:00:05;22.75;;;8.02;;
61635;SDS011;59438;45.014;39.006;2023-05-07T13:02:34;21.75;;;9.63;;
61635;SDS011;59438;45.014;39.006;2023-05-07T13:05:04;13.05;;;5.22;;
61635;SDS011;59438;45.014;39.006;2023-05-07T13:07:30;20.33;;;10.60;;
61635;SDS011;59438;45.014;39.006;2023-05-07T13:09:57;12.65;;;3.75;;
61635;SDS011;59438;45.014;39.006;2023-05-07T13:12:23;12.10;;;4.00;;
61635;SDS011;59438;45.014;39.006;2023-05-07T13:14:49;11.20;;;3.60;;
61635;SDS011;59438;45.014;39.006;2023-05-07T13:17:16;19.33;;;8.70;;
61635;SDS011;59438;45.014;39.006;2023-05-07T13:19:44;12.02;;;6.88;;
61635;SDS011;59438;45.014;39.006;2023-05-07T13:22:10;10.68;;;4.80;;
61635;SDS011;59438;45.014;39.006;2023-05-07T13:24:38;12.80;;;3.55;;
61635;SDS011;59438;45.014;39.006;2023-05-07T13:27:04;7.65;;;3.55;;
61635;SDS011;59438;45.014;39.006;2023-05-07T13:29:31;10.70;;;3.28;;
61635;SDS011;59438;45.014;39.006;2023-05-07T13:31:57;7.70;;;3.08;;
61635;SDS011;59438;45.014;39.006;2023-05-07T13:34:23;9.95;;;3.05;;
61635;SDS011;59438;45.014;39.006;2023-05-07T13:36:51;6.03;;;2.35;;
61635;SDS011;59438;45.014;39.006;2023-05-07T13:39:18;9.75;;;2.38;;
61635;SDS011;59438;45.014;39.006;2023-05-07T13:41:44;6.07;;;2.22;;
61635;SDS011;59438;45.014;39.006;2023-05-07T13:44:10;9.10;;;1.92;;
61635;SDS011;59438;45.014;39.006;2023-05-07T13:46:36;4.13;;;1.83;;
61635;SDS011;59438;45.014;39.006;2023-05-07T13:49:03;7.40;;;2.08;;
61635;SDS011;59438;45.014;39.006;2023-05-07T13:51:29;6.03;;;2.35;;
61635;SDS011;59438;45.014;39.006;2023-05-07T13:53:57;6.90;;;2.33;;
61635;SDS011;59438;45.014;39.006;2023-05-07T13:56:23;17.95;;;2.45;;
61635;SDS011;59438;45.014;39.006;2023-05-07T13:58:50;5.35;;;2.20;;
61635;SDS011;59438;45.014;39.006;2023-05-07T14:01:16;5.30;;;1.70;;
61635;SDS011;59438;45.014;39.006;2023-05-07T14:03:42;10.90;;;2.00;;
61635;SDS011;59438;45.014;39.006;2023-05-07T14:06:09;6.30;;;1.90;;
61635;SDS011;59438;45.014;39.006;2023-05-07T14:08:35;5.90;;;1.88;;
61635;SDS011;59438;45.014;39.006;2023-05-07T14:11:03;6.25;;;1.70;;
61635;SDS011;59438;45.014;39.006;2023-05-07T14:13:29;6.18;;;2.10;;
61635;SDS011;59438;45.014;39.006;2023-05-07T14:15:56;8.88;;;2.05;;
61635;SDS011;59438;45.014;39.006;2023-05-07T14:18:22;3.08;;;1.95;;
61635;SDS011;59438;45.014;39.006;2023-05-07T14:20:48;8.88;;;2.33;;
61635;SDS011;59438;45.014;39.006;2023-05-07T14:23:15;5.30;;;2.00;;
61635;SDS011;59438;45.014;39.006;2023-05-07T14:25:41;5.88;;;2.33;;
61635;SDS011;59438;45.014;39.006;2023-05-07T14:28:09;6.78;;;1.95;;
61635;SDS011;59438;45.014;39.006;2023-05-07T14:30:35;9.77;;;2.28;;
61635;SDS011;59438;45.014;39.006;2023-05-07T14:33:01;4.93;;;2.00;;
61635;SDS011;59438;45.014;39.006;2023-05-07T14:35:28;8.85;;;2.35;;
61635;SDS011;59438;45.014;39.006;2023-05-07T14:37:54;6.57;;;2.33;;
61635;SDS011;59438;45.014;39.006;2023-05-07T14:40:21;8.57;;;2.40;;